sensor_id;sensor_type;location;lat;lon;timestamp;P1;durP1;ratioP1;P2;durP2;ratioP2
809;SDS011;387;48.772;9.186;2024-02-21T00:02:11;10.73;;;4.90;;
809;SDS011;387;48.772;9.186;2024-02-21T00:04:37;10.13;;;5.30;;
809;SDS011;387;48.772;9.186;2024-02-21T00:07:03;11.67;;;5.67;;
809;SDS011;387;48.772;9.186;2024-02-21T00:09:30;9.30;;;5.00;;
809;SDS011;387;48.772;9.186;2024-02-21T00:11:56;13.43;;;6.03;;
809;SDS011;387;48.772;9.186;2024-02-21T00:14:22;10.53;;;5.20;;
809;SDS011;387;48.772;9.186;2024-02-21T00:16:47;11.83;;;5.60;;
809;SDS011;387;48.772;9.186;2024-02-21T00:19:13;14.50;;;5.83;;
809;SDS011;387;48.772;9.186;2024-02-21T00:21:39;12.60;;;5.23;;
809;SDS011;387;48.772;9.186;2024-02-21T00:24:05;9.63;;;5.07;;
809;SDS011;387;48.772;9.186;2024-02-21T00:26:31;13.10;;;4.83;;
809;SDS011;387;48.772;9.186;2024-02-21T00:28:57;13.57;;;5.77;;
809;SDS011;387;48.772;9.186;2024-02-21T00:31:22;11.90;;;5.50;;
809;SDS011;387;48.772;9.186;2024-02-21T00:33:48;11.27;;;5.20;;
809;SDS011;387;48.772;9.186;2024-02-21T00:36:13;9.47;;;4.30;;
809;SDS011;387;48.772;9.186;2024-02-21T00:38:40;10.43;;;4.67;;
809;SDS011;387;48.772;9.186;2024-02-21T00:41:05;12.43;;;5.60;;
809;SDS011;387;48.772;9.186;2024-02-21T00:43:31;15.63;;;4.73;;
809;SDS011;387;48.772;9.186;2024-02-21T00:45:57;9.20;;;4.73;;
809;SDS011;387;48.772;9.186;2024-02-21T00:48:22;14.60;;;6.07;;
809;SDS011;387;48.772;9.186;2024-02-21T00:50:48;12.40;;;4.67;;
809;SDS011;387;48.772;9.186;2024-02-21T00:53:13;8.97;;;4.93;;
809;SDS011;387;48.772;9.186;2024-02-21T00:55:39;11.60;;;5.13;;
809;SDS011;387;48.772;9.186;2024-02-21T00:58:05;8.83;;;4.50;;
809;SDS011;387;48.772;9.186;2024-02-21T01:00:31;12.83;;;5.23;;
809;SDS011;387;48.772;9.186;2024-02-21T01:02:56;16.17;;;5.13;;
809;SDS011;387;48.772;9.186;2024-02-21T01:05:22;15.80;;;4.33;;
809;SDS011;387;48.772;9.186;2024-02-21T01:07:48;10.80;;;4.60;;
809;SDS011;387;48.772;9.186;2024-02-21T01:10:13;13.93;;;5.40;;
809;SDS011;387;48.772;9.186;2024-02-21T01:12:39;13.80;;;4.47;;
809;SDS011;387;48.772;9.186;2024-02-21T01:15:05;14.80;;;4.80;;
809;SDS011;387;48.772;9.186;2024-02-21T01:17:30;11.20;;;4.70;;
809;SDS011;387;48.772;9.186;2024-02-21T01:19:56;14.30;;;4.70;;
809;SDS011;387;48.772;9.186;2024-02-21T01:22:21;9.80;;;4.70;;
809;SDS011;387;48.772;9.186;2024-02-21T01:24:47;11.27;;;4.63;;
809;SDS011;387;48.772;9.186;2024-02-21T01:27:13;11.00;;;4.70;;
809;SDS011;387;48.772;9.186;2024-02-21T01:29:38;15.33;;;5.10;;
809;SDS011;387;48.772;9.186;2024-02-21T01:32:04;8.83;;;4.27;;
809;SDS011;387;48.772;9.186;2024-02-21T01:34:30;10.83;;;3.97;;
809;SDS011;387;48.772;9.186;2024-02-21T01:36:55;6.67;;;4.17;;
809;SDS011;387;48.772;9.186;2024-02-21T01:39:21;11.97;;;5.13;;
809;SDS011;387;48.772;9.186;2024-02-21T01:41:46;16.30;;;4.37;;
809;SDS011;387;48.772;9.186;2024-02-21T01:44:12;10.57;;;4.63;;
809;SDS011;387;48.772;9.186;2024-02-21T01:46:38;13.40;;;5.00;;
809;SDS011;387;48.772;9.186;2024-02-21T01:49:04;17.37;;;4.70;;
809;SDS011;387;48.772;9.186;2024-02-21T01:51:30;12.90;;;5.20;;
809;SDS011;387;48.772;9.186;2024-02-21T01:53:56;13.70;;;4.67;;
809;SDS011;387;48.772;9.186;2024-02-21T01:56:22;11.93;;;4.80;;
809;SDS011;387;48.772;9.186;2024-02-21T01:58:49;13.13;;;5.37;;
809;SDS011;387;48.772;9.186;2024-02-21T02:01:15;9.60;;;4.30;;
809;SDS011;387;48.772;9.186;2024-02-21T02:03:42;13.30;;;4.83;;
809;SDS011;387;48.772;9.186;2024-02-21T02:06:10;9.37;;;5.13;;
809;SDS011;387;48.772;9.186;2024-02-21T02:08:35;14.63;;;4.77;;
809;SDS011;387;48.772;9.186;2024-02-21T02:11:01;12.50;;;4.13;;
809;SDS011;387;48.772;9.186;2024-02-21T02:13:27;13.50;;;5.10;;
809;SDS011;387;48.772;9.186;2024-02-21T02:15:52;7.13;;;3.90;;
809;SDS011;387;48.772;9.186;2024-02-21T02:18:19;27.30;;;4.50;;
809;SDS011;387;48.772;9.186;2024-02-21T02:20:45;12.90;;;4.40;;
809;SDS011;387;48.772;9.186;2024-02-21T02:23:12;6.67;;;4.20;;
809;SDS011;387;48.772;9.186;2024-02-21T02:25:51;7.77;;;4.13;;
809;SDS011;387;48.772;9.186;2024-02-21T02:28:17;9.23;;;4.70;;
809;SDS011;387;48.772;9.186;2024-02-21T02:30:44;12.93;;;5.20;;
809;SDS011;387;48.772;9.186;2024-02-21T02:33:10;11.53;;;4.00;;
809;SDS011;387;48.772;9.186;2024-02-21T02:35:35;10.97;;;4.10;;
809;SDS011;387;48.772;9.186;2024-02-21T02:38:01;8.63;;;3.90;;
809;SDS011;387;48.772;9.186;2024-02-21T02:40:28;16.23;;;4.13;;
809;SDS011;387;48.772;9.186;2024-02-21T02:42:54;13.00;;;4.90;;
809;SDS011;387;48.772;9.186;2024-02-21T02:45:20;9.63;;;4.60;;
809;SDS011;387;48.772;9.186;2024-02-21T02:47:51;9.97;;;3.63;;
809;SDS011;387;48.772;9.186;2024-02-21T02:50:19;10.93;;;3.60;;
809;SDS011;387;48.772;9.186;2024-02-21T02:52:45;8.03;;;3.67;;
809;SDS011;387;48.772;9.186;2024-02-21T02:55:10;8.40;;;3.33;;
809;SDS011;387;48.772;9.186;2024-02-21T02:57:36;9.83;;;4.43;;
809;SDS011;387;48.772;9.186;2024-02-21T03:00:01;7.00;;;3.70;;
809;SDS011;387;48.772;9.186;2024-02-21T03:02:28;9.30;;;3.70;;
809;SDS011;387;48.772;9.186;2024-02-21T03:04:53;11.30;;;4.30;;
809;SDS011;387;48.772;9.186;2024-02-21T03:07:19;9.53;;;4.20;;
809;SDS011;387;48.772;9.186;2024-02-21T03:09:45;8.83;;;3.80;;
809;SDS011;387;48.772;9.186;2024-02-21T03:12:11;10.13;;;4.00;;
809;SDS011;387;48.772;9.186;2024-02-21T03:14:37;8.97;;;3.77;;
809;SDS011;387;48.772;9.186;2024-02-21T03:17:02;12.00;;;4.20;;
809;SDS011;387;48.772;9.186;2024-02-21T03:19:29;8.63;;;4.30;;
809;SDS011;387;48.772;9.186;2024-02-21T03:21:55;13.80;;;5.00;;
809;SDS011;387;48.772;9.186;2024-02-21T03:24:21;9.87;;;4.77;;
809;SDS011;387;48.772;9.186;2024-02-21T03:26:47;8.27;;;3.67;;
809;SDS011;387;48.772;9.186;2024-02-21T03:29:14;7.30;;;4.20;;
809;SDS011;387;48.772;9.186;2024-02-21T03:31:41;7.97;;;4.10;;
809;SDS011;387;48.772;9.186;2024-02-21T03:34:07;8.43;;;4.10;;
809;SDS011;387;48.772;9.186;2024-02-21T03:36:33;11.87;;;4.33;;
809;SDS011;387;48.772;9.186;2024-02-21T03:38:59;11.97;;;5.50;;
809;SDS011;387;48.772;9.186;2024-02-21T03:41:24;15.03;;;4.23;;
809;SDS011;387;48.772;9.186;2024-02-21T03:43:50;9.80;;;4.10;;
809;SDS011;387;48.772;9.186;2024-02-21T03:46:16;11.10;;;4.20;;
809;SDS011;387;48.772;9.186;2024-02-21T03:48:41;13.30;;;4.67;;
809;SDS011;387;48.772;9.186;2024-02-21T03:51:07;7.37;;;3.40;;
809;SDS011;387;48.772;9.186;2024-02-21T03:53:33;9.93;;;4.00;;
809;SDS011;387;48.772;9.186;2024-02-21T03:56:02;14.33;;;4.30;;
809;SDS011;387;48.772;9.186;2024-02-21T03:58:29;10.70;;;3.40;;
809;SDS011;387;48.772;9.186;2024-02-21T04:00:55;8.20;;;4.10;;
809;SDS011;387;48.772;9.186;2024-02-21T04:03:20;10.33;;;4.20;;
809;SDS011;387;48.772;9.186;2024-02-21T04:05:46;7.30;;;4.13;;
809;SDS011;387;48.772;9.186;2024-02-21T04:08:11;9.17;;;4.30;;
809;SDS011;387;48.772;9.186;2024-02-21T04:10:37;8.43;;;3.63;;
809;SDS011;387;48.772;9.186;2024-02-21T04:13:03;13.90;;;4.00;;
809;SDS011;387;48.772;9.186;2024-02-21T04:15:31;10.30;;;4.67;;
809;SDS011;387;48.772;9.186;2024-02-21T04:17:57;13.03;;;4.50;;
809;SDS011;387;48.772;9.186;2024-02-21T04:20:22;8.10;;;3.93;;
809;SDS011;387;48.772;9.186;2024-02-21T04:22:48;12.33;;;4.63;;
809;SDS011;387;48.772;9.186;2024-02-21T04:25:14;7.40;;;3.70;;
809;SDS011;387;48.772;9.186;2024-02-21T04:27:40;8.57;;;3.80;;
809;SDS011;387;48.772;9.186;2024-02-21T04:30:06;6.00;;;3.47;;
809;SDS011;387;48.772;9.186;2024-02-21T04:32:32;9.07;;;4.07;;
809;SDS011;387;48.772;9.186;2024-02-21T04:34:58;9.97;;;3.83;;
809;SDS011;387;48.772;9.186;2024-02-21T04:37:23;17.57;;;4.07;;
809;SDS011;387;48.772;9.186;2024-02-21T04:39:49;8.43;;;4.13;;
809;SDS011;387;48.772;9.186;2024-02-21T04:42:15;10.10;;;3.70;;
809;SDS011;387;48.772;9.186;2024-02-21T04:44:41;12.57;;;3.40;;
809;SDS011;387;48.772;9.186;2024-02-21T04:47:07;8.93;;;3.80;;
809;SDS011;387;48.772;9.186;2024-02-21T04:49:33;9.53;;;3.60;;
809;SDS011;387;48.772;9.186;2024-02-21T04:51:59;11.70;;;4.17;;
809;SDS011;387;48.772;9.186;2024-02-21T04:54:24;9.40;;;3.83;;
809;SDS011;387;48.772;9.186;2024-02-21T04:56:50;9.27;;;3.73;;
809;SDS011;387;48.772;9.186;2024-02-21T04:59:16;8.77;;;4.00;;
809;SDS011;387;48.772;9.186;2024-02-21T05:01:42;10.53;;;4.30;;
809;SDS011;387;48.772;9.186;2024-02-21T05:04:07;14.43;;;3.60;;
809;SDS011;387;48.772;9.186;2024-02-21T05:06:39;7.30;;;3.53;;
809;SDS011;387;48.772;9.186;2024-02-21T05:09:05;11.23;;;3.67;;
809;SDS011;387;48.772;9.186;2024-02-21T05:11:31;7.90;;;3.47;;
809;SDS011;387;48.772;9.186;2024-02-21T05:13:57;8.83;;;4.00;;
809;SDS011;387;48.772;9.186;2024-02-21T05:16:23;7.40;;;3.70;;
809;SDS011;387;48.772;9.186;2024-02-21T05:18:48;8.60;;;3.87;;
809;SDS011;387;48.772;9.186;2024-02-21T05:21:14;8.97;;;4.37;;
809;SDS011;387;48.772;9.186;2024-02-21T05:23:40;6.60;;;3.80;;
809;SDS011;387;48.772;9.186;2024-02-21T05:26:06;11.40;;;4.57;;
809;SDS011;387;48.772;9.186;2024-02-21T05:28:32;5.83;;;3.50;;
809;SDS011;387;48.772;9.186;2024-02-21T05:30:59;6.80;;;3.27;;
809;SDS011;387;48.772;9.186;2024-02-21T05:33:24;6.73;;;3.60;;
809;SDS011;387;48.772;9.186;2024-02-21T05:35:50;14.30;;;4.57;;
809;SDS011;387;48.772;9.186;2024-02-21T05:38:16;6.53;;;3.30;;
809;SDS011;387;48.772;9.186;2024-02-21T05:40:41;5.77;;;2.80;;
809;SDS011;387;48.772;9.186;2024-02-21T05:43:07;9.33;;;3.07;;
809;SDS011;387;48.772;9.186;2024-02-21T05:45:33;5.30;;;2.63;;
809;SDS011;387;48.772;9.186;2024-02-21T05:47:59;9.83;;;3.23;;
809;SDS011;387;48.772;9.186;2024-02-21T05:50:25;9.50;;;3.60;;
809;SDS011;387;48.772;9.186;2024-02-21T05:52:52;7.13;;;2.67;;
809;SDS011;387;48.772;9.186;2024-02-21T05:55:19;13.40;;;3.20;;
809;SDS011;387;48.772;9.186;2024-02-21T05:57:44;6.20;;;2.93;;
809;SDS011;387;48.772;9.186;2024-02-21T06:00:10;8.50;;;3.43;;
809;SDS011;387;48.772;9.186;2024-02-21T06:02:36;4.30;;;2.70;;
809;SDS011;387;48.772;9.186;2024-02-21T06:05:01;7.80;;;3.70;;
809;SDS011;387;48.772;9.186;2024-02-21T06:07:27;9.90;;;3.63;;
809;SDS011;387;48.772;9.186;2024-02-21T06:09:53;5.93;;;3.30;;
809;SDS011;387;48.772;9.186;2024-02-21T06:12:18;9.50;;;3.17;;
809;SDS011;387;48.772;9.186;2024-02-21T06:14:44;10.57;;;3.40;;
809;SDS011;387;48.772;9.186;2024-02-21T06:17:10;8.20;;;3.63;;
809;SDS011;387;48.772;9.186;2024-02-21T06:19:37;7.67;;;4.27;;
809;SDS011;387;48.772;9.186;2024-02-21T06:22:05;14.37;;;3.73;;
809;SDS011;387;48.772;9.186;2024-02-21T06:24:32;13.00;;;3.80;;
809;SDS011;387;48.772;9.186;2024-02-21T06:26:59;8.33;;;4.23;;
809;SDS011;387;48.772;9.186;2024-02-21T06:29:24;6.23;;;2.77;;
809;SDS011;387;48.772;9.186;2024-02-21T06:31:50;11.07;;;3.10;;
809;SDS011;387;48.772;9.186;2024-02-21T06:34:15;11.43;;;3.50;;
809;SDS011;387;48.772;9.186;2024-02-21T06:36:42;8.07;;;2.97;;
809;SDS011;387;48.772;9.186;2024-02-21T06:39:07;7.03;;;3.57;;
809;SDS011;387;48.772;9.186;2024-02-21T06:41:33;5.60;;;2.90;;
809;SDS011;387;48.772;9.186;2024-02-21T06:43:59;7.07;;;3.53;;
809;SDS011;387;48.772;9.186;2024-02-21T06:48:54;8.47;;;3.63;;
809;SDS011;387;48.772;9.186;2024-02-21T06:51:22;7.23;;;3.23;;
809;SDS011;387;48.772;9.186;2024-02-21T06:53:48;8.20;;;3.57;;
809;SDS011;387;48.772;9.186;2024-02-21T06:56:13;8.30;;;2.67;;
809;SDS011;387;48.772;9.186;2024-02-21T06:58:39;7.07;;;3.23;;
809;SDS011;387;48.772;9.186;2024-02-21T07:01:05;7.00;;;2.97;;
809;SDS011;387;48.772;9.186;2024-02-21T07:03:31;11.97;;;3.77;;
809;SDS011;387;48.772;9.186;2024-02-21T07:05:57;20.87;;;5.27;;
809;SDS011;387;48.772;9.186;2024-02-21T07:08:22;18.93;;;4.20;;
809;SDS011;387;48.772;9.186;2024-02-21T07:10:48;9.93;;;3.50;;
809;SDS011;387;48.772;9.186;2024-02-21T07:13:13;13.13;;;4.13;;
809;SDS011;387;48.772;9.186;2024-02-21T07:15:40;11.90;;;3.40;;
809;SDS011;387;48.772;9.186;2024-02-21T07:18:06;10.03;;;3.50;;
809;SDS011;387;48.772;9.186;2024-02-21T07:20:32;9.93;;;3.80;;
809;SDS011;387;48.772;9.186;2024-02-21T07:22:58;9.33;;;3.50;;
809;SDS011;387;48.772;9.186;2024-02-21T07:25:24;14.73;;;4.57;;
809;SDS011;387;48.772;9.186;2024-02-21T07:27:50;30.00;;;5.90;;
809;SDS011;387;48.772;9.186;2024-02-21T07:30:16;6.77;;;3.60;;
809;SDS011;387;48.772;9.186;2024-02-21T07:32:41;11.50;;;3.77;;
809;SDS011;387;48.772;9.186;2024-02-21T07:35:07;8.47;;;3.30;;
809;SDS011;387;48.772;9.186;2024-02-21T07:37:37;4.00;;;2.77;;
809;SDS011;387;48.772;9.186;2024-02-21T07:40:06;13.50;;;3.30;;
809;SDS011;387;48.772;9.186;2024-02-21T07:42:32;7.87;;;3.30;;
809;SDS011;387;48.772;9.186;2024-02-21T07:44:58;10.23;;;3.50;;
809;SDS011;387;48.772;9.186;2024-02-21T07:47:23;5.60;;;3.07;;
809;SDS011;387;48.772;9.186;2024-02-21T07:49:49;7.77;;;3.30;;
809;SDS011;387;48.772;9.186;2024-02-21T07:52:15;9.20;;;3.40;;
809;SDS011;387;48.772;9.186;2024-02-21T07:54:40;4.23;;;2.63;;
809;SDS011;387;48.772;9.186;2024-02-21T07:57:09;7.53;;;3.60;;
809;SDS011;387;48.772;9.186;2024-02-21T07:59:35;7.03;;;3.30;;
809;SDS011;387;48.772;9.186;2024-02-21T08:02:00;11.60;;;4.00;;
809;SDS011;387;48.772;9.186;2024-02-21T08:04:27;42.23;;;5.07;;
809;SDS011;387;48.772;9.186;2024-02-21T08:06:55;10.83;;;3.43;;
809;SDS011;387;48.772;9.186;2024-02-21T08:09:22;16.40;;;3.60;;
809;SDS011;387;48.772;9.186;2024-02-21T08:11:48;8.90;;;3.27;;
809;SDS011;387;48.772;9.186;2024-02-21T08:14:14;10.70;;;4.33;;
809;SDS011;387;48.772;9.186;2024-02-21T08:16:41;10.87;;;3.30;;
809;SDS011;387;48.772;9.186;2024-02-21T08:19:07;9.60;;;4.17;;
809;SDS011;387;48.772;9.186;2024-02-21T08:21:33;18.70;;;4.47;;
809;SDS011;387;48.772;9.186;2024-02-21T08:23:58;9.63;;;3.53;;
809;SDS011;387;48.772;9.186;2024-02-21T08:26:24;14.60;;;4.70;;
809;SDS011;387;48.772;9.186;2024-02-21T08:28:53;12.80;;;3.70;;
809;SDS011;387;48.772;9.186;2024-02-21T08:31:19;5.20;;;3.30;;
809;SDS011;387;48.772;9.186;2024-02-21T08:33:45;9.87;;;3.60;;
809;SDS011;387;48.772;9.186;2024-02-21T08:36:19;11.60;;;4.20;;
809;SDS011;387;48.772;9.186;2024-02-21T08:38:45;6.63;;;3.33;;
809;SDS011;387;48.772;9.186;2024-02-21T08:41:11;10.77;;;4.00;;
809;SDS011;387;48.772;9.186;2024-02-21T08:43:37;7.13;;;3.30;;
809;SDS011;387;48.772;9.186;2024-02-21T08:46:03;8.20;;;3.70;;
809;SDS011;387;48.772;9.186;2024-02-21T08:48:29;8.80;;;3.30;;
809;SDS011;387;48.772;9.186;2024-02-21T08:50:54;8.80;;;3.77;;
809;SDS011;387;48.772;9.186;2024-02-21T08:53:20;9.00;;;3.73;;
809;SDS011;387;48.772;9.186;2024-02-21T08:55:45;14.57;;;4.23;;
809;SDS011;387;48.772;9.186;2024-02-21T08:58:11;11.20;;;4.50;;
809;SDS011;387;48.772;9.186;2024-02-21T09:00:37;8.63;;;3.57;;
809;SDS011;387;48.772;9.186;2024-02-21T09:03:03;9.77;;;3.17;;
809;SDS011;387;48.772;9.186;2024-02-21T09:05:28;6.30;;;2.80;;
809;SDS011;387;48.772;9.186;2024-02-21T09:07:54;9.47;;;3.33;;
809;SDS011;387;48.772;9.186;2024-02-21T09:10:20;7.10;;;3.17;;
809;SDS011;387;48.772;9.186;2024-02-21T09:12:46;15.70;;;4.63;;
809;SDS011;387;48.772;9.186;2024-02-21T09:15:12;11.03;;;3.20;;
809;SDS011;387;48.772;9.186;2024-02-21T09:17:38;8.47;;;3.47;;
809;SDS011;387;48.772;9.186;2024-02-21T09:20:04;7.17;;;3.80;;
809;SDS011;387;48.772;9.186;2024-02-21T09:22:31;4.90;;;2.93;;
809;SDS011;387;48.772;9.186;2024-02-21T09:24:59;6.70;;;3.10;;
809;SDS011;387;48.772;9.186;2024-02-21T09:27:25;6.40;;;3.40;;
809;SDS011;387;48.772;9.186;2024-02-21T09:29:50;6.23;;;2.83;;
809;SDS011;387;48.772;9.186;2024-02-21T09:32:17;9.03;;;3.20;;
809;SDS011;387;48.772;9.186;2024-02-21T09:34:44;6.83;;;3.20;;
809;SDS011;387;48.772;9.186;2024-02-21T09:37:10;7.43;;;3.10;;
809;SDS011;387;48.772;9.186;2024-02-21T09:39:36;6.97;;;2.60;;
809;SDS011;387;48.772;9.186;2024-02-21T09:42:05;12.43;;;3.30;;
809;SDS011;387;48.772;9.186;2024-02-21T09:44:33;6.17;;;2.97;;
809;SDS011;387;48.772;9.186;2024-02-21T09:47:06;8.43;;;3.43;;
809;SDS011;387;48.772;9.186;2024-02-21T09:49:35;6.73;;;2.67;;
809;SDS011;387;48.772;9.186;2024-02-21T09:52:06;5.67;;;3.00;;
809;SDS011;387;48.772;9.186;2024-02-21T09:54:32;6.30;;;3.23;;
809;SDS011;387;48.772;9.186;2024-02-21T09:57:02;12.00;;;3.20;;
809;SDS011;387;48.772;9.186;2024-02-21T09:59:30;6.67;;;2.90;;
809;SDS011;387;48.772;9.186;2024-02-21T10:01:56;8.03;;;3.30;;
809;SDS011;387;48.772;9.186;2024-02-21T10:04:24;8.07;;;3.10;;
809;SDS011;387;48.772;9.186;2024-02-21T10:06:50;8.67;;;3.43;;
809;SDS011;387;48.772;9.186;2024-02-21T10:09:26;7.37;;;2.90;;
809;SDS011;387;48.772;9.186;2024-02-21T10:11:53;7.83;;;2.70;;
809;SDS011;387;48.772;9.186;2024-02-21T10:14:19;12.97;;;3.97;;
809;SDS011;387;48.772;9.186;2024-02-21T10:16:48;5.17;;;2.67;;
809;SDS011;387;48.772;9.186;2024-02-21T10:19:21;6.07;;;2.80;;
809;SDS011;387;48.772;9.186;2024-02-21T10:21:59;6.23;;;2.80;;
809;SDS011;387;48.772;9.186;2024-02-21T10:24:29;7.60;;;3.17;;
809;SDS011;387;48.772;9.186;2024-02-21T10:27:01;7.03;;;2.60;;
809;SDS011;387;48.772;9.186;2024-02-21T10:29:29;7.17;;;2.93;;
809;SDS011;387;48.772;9.186;2024-02-21T10:32:12;7.80;;;2.47;;
809;SDS011;387;48.772;9.186;2024-02-21T10:34:40;8.17;;;3.10;;
809;SDS011;387;48.772;9.186;2024-02-21T10:37:07;8.17;;;3.30;;
809;SDS011;387;48.772;9.186;2024-02-21T10:39:34;6.13;;;2.63;;
809;SDS011;387;48.772;9.186;2024-02-21T10:42:01;11.83;;;2.97;;
809;SDS011;387;48.772;9.186;2024-02-21T10:44:34;3.70;;;2.20;;
809;SDS011;387;48.772;9.186;2024-02-21T10:47:04;8.47;;;2.77;;
809;SDS011;387;48.772;9.186;2024-02-21T10:49:34;7.90;;;2.50;;
809;SDS011;387;48.772;9.186;2024-02-21T10:52:12;8.33;;;3.30;;
809;SDS011;387;48.772;9.186;2024-02-21T10:54:56;8.40;;;2.40;;
809;SDS011;387;48.772;9.186;2024-02-21T10:57:27;8.13;;;2.70;;
809;SDS011;387;48.772;9.186;2024-02-21T10:59:55;6.30;;;2.93;;
809;SDS011;387;48.772;9.186;2024-02-21T11:02:23;8.20;;;2.90;;
809;SDS011;387;48.772;9.186;2024-02-21T11:04:49;8.67;;;2.90;;
809;SDS011;387;48.772;9.186;2024-02-21T11:07:17;7.60;;;2.20;;
809;SDS011;387;48.772;9.186;2024-02-21T11:09:50;5.90;;;2.53;;
809;SDS011;387;48.772;9.186;2024-02-21T11:12:20;4.00;;;2.30;;
809;SDS011;387;48.772;9.186;2024-02-21T11:14:46;6.00;;;2.40;;
809;SDS011;387;48.772;9.186;2024-02-21T11:17:18;6.80;;;2.30;;
809;SDS011;387;48.772;9.186;2024-02-21T11:19:46;6.00;;;2.67;;
809;SDS011;387;48.772;9.186;2024-02-21T11:22:16;5.53;;;2.27;;
809;SDS011;387;48.772;9.186;2024-02-21T11:24:42;4.60;;;2.70;;
809;SDS011;387;48.772;9.186;2024-02-21T11:27:08;5.83;;;3.00;;
809;SDS011;387;48.772;9.186;2024-02-21T11:32:10;10.57;;;2.87;;
809;SDS011;387;48.772;9.186;2024-02-21T11:34:37;5.60;;;2.63;;
809;SDS011;387;48.772;9.186;2024-02-21T11:37:12;7.40;;;2.03;;
809;SDS011;387;48.772;9.186;2024-02-21T11:39:42;7.57;;;2.40;;
809;SDS011;387;48.772;9.186;2024-02-21T11:42:08;4.57;;;2.13;;
809;SDS011;387;48.772;9.186;2024-02-21T11:44:37;6.27;;;2.30;;
809;SDS011;387;48.772;9.186;2024-02-21T11:47:03;5.40;;;1.80;;
809;SDS011;387;48.772;9.186;2024-02-21T11:49:29;2.70;;;2.00;;
809;SDS011;387;48.772;9.186;2024-02-21T11:51:59;9.80;;;2.10;;
809;SDS011;387;48.772;9.186;2024-02-21T11:54:26;5.70;;;2.60;;
809;SDS011;387;48.772;9.186;2024-02-21T11:56:52;2.90;;;1.80;;
809;SDS011;387;48.772;9.186;2024-02-21T11:59:18;6.13;;;2.13;;
809;SDS011;387;48.772;9.186;2024-02-21T12:01:44;5.97;;;2.10;;
809;SDS011;387;48.772;9.186;2024-02-21T12:04:10;4.20;;;2.00;;
809;SDS011;387;48.772;9.186;2024-02-21T12:06:36;3.83;;;1.70;;
809;SDS011;387;48.772;9.186;2024-02-21T12:09:01;6.77;;;2.20;;
809;SDS011;387;48.772;9.186;2024-02-21T12:11:27;6.23;;;2.47;;
809;SDS011;387;48.772;9.186;2024-02-21T12:13:59;5.10;;;2.00;;
809;SDS011;387;48.772;9.186;2024-02-21T12:16:30;6.00;;;1.90;;
809;SDS011;387;48.772;9.186;2024-02-21T12:18:57;7.70;;;2.50;;
809;SDS011;387;48.772;9.186;2024-02-21T12:21:24;4.73;;;2.37;;
809;SDS011;387;48.772;9.186;2024-02-21T12:23:55;3.73;;;1.90;;
809;SDS011;387;48.772;9.186;2024-02-21T12:26:22;5.00;;;1.80;;
809;SDS011;387;48.772;9.186;2024-02-21T12:28:47;9.50;;;2.20;;
809;SDS011;387;48.772;9.186;2024-02-21T12:31:13;8.10;;;2.50;;
809;SDS011;387;48.772;9.186;2024-02-21T12:33:39;6.40;;;2.50;;
809;SDS011;387;48.772;9.186;2024-02-21T12:36:05;5.70;;;2.57;;
809;SDS011;387;48.772;9.186;2024-02-21T12:38:30;3.50;;;1.57;;
809;SDS011;387;48.772;9.186;2024-02-21T12:40:56;6.60;;;2.30;;
809;SDS011;387;48.772;9.186;2024-02-21T12:43:22;5.30;;;2.13;;
809;SDS011;387;48.772;9.186;2024-02-21T12:45:48;8.37;;;2.13;;
809;SDS011;387;48.772;9.186;2024-02-21T12:48:14;3.50;;;1.50;;
809;SDS011;387;48.772;9.186;2024-02-21T12:50:40;4.40;;;1.73;;
809;SDS011;387;48.772;9.186;2024-02-21T12:53:12;6.50;;;2.27;;
809;SDS011;387;48.772;9.186;2024-02-21T12:55:40;11.00;;;2.20;;
809;SDS011;387;48.772;9.186;2024-02-21T12:58:06;5.10;;;2.00;;
809;SDS011;387;48.772;9.186;2024-02-21T13:00:32;4.00;;;1.90;;
809;SDS011;387;48.772;9.186;2024-02-21T13:02:57;8.10;;;2.27;;
809;SDS011;387;48.772;9.186;2024-02-21T13:05:23;3.90;;;2.23;;
809;SDS011;387;48.772;9.186;2024-02-21T13:07:49;14.03;;;2.70;;
809;SDS011;387;48.772;9.186;2024-02-21T13:10:15;8.67;;;2.47;;
809;SDS011;387;48.772;9.186;2024-02-21T13:12:40;9.03;;;2.43;;
809;SDS011;387;48.772;9.186;2024-02-21T13:15:06;5.27;;;2.40;;
809;SDS011;387;48.772;9.186;2024-02-21T13:17:32;10.73;;;2.40;;
809;SDS011;387;48.772;9.186;2024-02-21T13:19:58;3.73;;;2.03;;
809;SDS011;387;48.772;9.186;2024-02-21T13:22:24;2.37;;;1.53;;
809;SDS011;387;48.772;9.186;2024-02-21T13:24:51;8.47;;;2.10;;
809;SDS011;387;48.772;9.186;2024-02-21T13:27:17;3.17;;;1.80;;
809;SDS011;387;48.772;9.186;2024-02-21T13:29:43;9.83;;;2.80;;
809;SDS011;387;48.772;9.186;2024-02-21T13:32:08;8.10;;;2.10;;
809;SDS011;387;48.772;9.186;2024-02-21T13:34:34;4.77;;;1.87;;
809;SDS011;387;48.772;9.186;2024-02-21T13:36:59;3.97;;;1.90;;
809;SDS011;387;48.772;9.186;2024-02-21T13:39:25;3.73;;;2.27;;
809;SDS011;387;48.772;9.186;2024-02-21T13:41:50;6.20;;;1.97;;
809;SDS011;387;48.772;9.186;2024-02-21T13:44:16;17.80;;;2.50;;
809;SDS011;387;48.772;9.186;2024-02-21T13:46:42;8.73;;;2.13;;
809;SDS011;387;48.772;9.186;2024-02-21T13:49:07;2.17;;;1.47;;
809;SDS011;387;48.772;9.186;2024-02-21T13:51:36;4.07;;;1.73;;
809;SDS011;387;48.772;9.186;2024-02-21T13:54:02;6.70;;;1.70;;
809;SDS011;387;48.772;9.186;2024-02-21T13:56:29;8.43;;;2.13;;
809;SDS011;387;48.772;9.186;2024-02-21T13:58:55;6.43;;;1.97;;
809;SDS011;387;48.772;9.186;2024-02-21T14:01:21;4.17;;;1.97;;
809;SDS011;387;48.772;9.186;2024-02-21T14:03:46;5.47;;;1.80;;
809;SDS011;387;48.772;9.186;2024-02-21T14:06:12;4.07;;;1.90;;
809;SDS011;387;48.772;9.186;2024-02-21T14:08:37;5.97;;;1.60;;
809;SDS011;387;48.772;9.186;2024-02-21T14:11:05;5.50;;;1.90;;
809;SDS011;387;48.772;9.186;2024-02-21T14:13:31;8.60;;;2.10;;
809;SDS011;387;48.772;9.186;2024-02-21T14:15:57;7.40;;;1.50;;
809;SDS011;387;48.772;9.186;2024-02-21T14:18:22;7.00;;;1.90;;
809;SDS011;387;48.772;9.186;2024-02-21T14:20:48;5.03;;;1.80;;
809;SDS011;387;48.772;9.186;2024-02-21T14:23:13;8.10;;;2.00;;
809;SDS011;387;48.772;9.186;2024-02-21T14:25:39;4.53;;;1.50;;
809;SDS011;387;48.772;9.186;2024-02-21T14:28:07;5.27;;;1.40;;
809;SDS011;387;48.772;9.186;2024-02-21T14:30:34;2.20;;;1.50;;
809;SDS011;387;48.772;9.186;2024-02-21T14:33:00;3.20;;;1.90;;
809;SDS011;387;48.772;9.186;2024-02-21T14:35:25;2.60;;;1.37;;
809;SDS011;387;48.772;9.186;2024-02-21T14:37:51;6.23;;;2.10;;
809;SDS011;387;48.772;9.186;2024-02-21T14:40:18;4.80;;;1.70;;
809;SDS011;387;48.772;9.186;2024-02-21T14:42:46;2.43;;;1.77;;
809;SDS011;387;48.772;9.186;2024-02-21T14:45:13;5.63;;;1.60;;
809;SDS011;387;48.772;9.186;2024-02-21T14:47:39;3.70;;;1.50;;
809;SDS011;387;48.772;9.186;2024-02-21T14:50:05;4.13;;;1.60;;
809;SDS011;387;48.772;9.186;2024-02-21T14:52:32;2.73;;;1.60;;
809;SDS011;387;48.772;9.186;2024-02-21T14:54:58;2.20;;;1.40;;
809;SDS011;387;48.772;9.186;2024-02-21T14:57:24;6.50;;;2.13;;
809;SDS011;387;48.772;9.186;2024-02-21T14:59:50;3.47;;;1.50;;
809;SDS011;387;48.772;9.186;2024-02-21T15:02:21;3.70;;;1.50;;
809;SDS011;387;48.772;9.186;2024-02-21T15:04:50;3.43;;;2.00;;
809;SDS011;387;48.772;9.186;2024-02-21T15:07:19;7.57;;;2.27;;
809;SDS011;387;48.772;9.186;2024-02-21T15:09:46;16.17;;;3.20;;
809;SDS011;387;48.772;9.186;2024-02-21T15:12:11;8.10;;;2.10;;
809;SDS011;387;48.772;9.186;2024-02-21T15:14:37;5.67;;;1.80;;
809;SDS011;387;48.772;9.186;2024-02-21T15:17:03;7.40;;;2.33;;
809;SDS011;387;48.772;9.186;2024-02-21T15:19:29;4.43;;;1.87;;
809;SDS011;387;48.772;9.186;2024-02-21T15:21:55;5.03;;;1.63;;
809;SDS011;387;48.772;9.186;2024-02-21T15:24:20;4.00;;;1.70;;
809;SDS011;387;48.772;9.186;2024-02-21T15:26:46;3.23;;;1.80;;
809;SDS011;387;48.772;9.186;2024-02-21T15:29:11;4.80;;;1.77;;
809;SDS011;387;48.772;9.186;2024-02-21T15:31:37;10.80;;;2.30;;
809;SDS011;387;48.772;9.186;2024-02-21T15:34:03;3.53;;;1.70;;
809;SDS011;387;48.772;9.186;2024-02-21T15:36:28;2.77;;;1.80;;
809;SDS011;387;48.772;9.186;2024-02-21T15:38:54;4.70;;;1.83;;
809;SDS011;387;48.772;9.186;2024-02-21T15:41:19;5.07;;;1.80;;